sensor_id;sensor_type;location;lat;lon;timestamp;P1;durP1;ratioP1;P2;durP2;ratioP2
67554;SDS011;54385;53.516;49.456;2023-02-20T00:00:36;13.20;;;6.05;;
67554;SDS011;54385;53.516;49.456;2023-02-20T00:03:04;17.92;;;7.15;;
67554;SDS011;54385;53.516;49.456;2023-02-20T00:05:32;16.42;;;7.45;;
67554;SDS011;54385;53.516;49.456;2023-02-20T00:07:59;16.33;;;7.78;;
67554;SDS011;54385;53.516;49.456;2023-02-20T00:10:25;18.33;;;8.13;;
67554;SDS011;54385;53.516;49.456;2023-02-20T00:12:55;16.10;;;7.03;;
67554;SDS011;54385;53.516;49.456;2023-02-20T00:15:21;17.73;;;7.55;;
67554;SDS011;54385;53.516;49.456;2023-02-20T00:17:48;20.65;;;8.05;;
67554;SDS011;54385;53.516;49.456;2023-02-20T00:20:16;21.58;;;6.95;;
67554;SDS011;54385;53.516;49.456;2023-02-20T00:22:44;16.60;;;8.25;;
67554;SDS011;54385;53.516;49.456;2023-02-20T00:25:11;16.30;;;7.85;;
67554;SDS011;54385;53.516;49.456;2023-02-20T00:27:37;13.50;;;5.82;;
67554;SDS011;54385;53.516;49.456;2023-02-20T00:30:09;16.98;;;6.65;;
67554;SDS011;54385;53.516;49.456;2023-02-20T00:32:42;21.20;;;7.80;;
67554;SDS011;54385;53.516;49.456;2023-02-20T00:35:09;13.38;;;7.20;;
67554;SDS011;54385;53.516;49.456;2023-02-20T00:37:39;23.38;;;9.55;;
67554;SDS011;54385;53.516;49.456;2023-02-20T00:40:06;18.48;;;9.93;;
67554;SDS011;54385;53.516;49.456;2023-02-20T00:42:33;16.80;;;7.75;;
67554;SDS011;54385;53.516;49.456;2023-02-20T00:45:00;22.40;;;9.30;;
67554;SDS011;54385;53.516;49.456;2023-02-20T00:47:26;20.13;;;8.77;;
67554;SDS011;54385;53.516;49.456;2023-02-20T00:49:55;21.45;;;9.75;;
67554;SDS011;54385;53.516;49.456;2023-02-20T00:52:21;26.83;;;10.00;;
67554;SDS011;54385;53.516;49.456;2023-02-20T00:54:48;24.25;;;9.13;;
67554;SDS011;54385;53.516;49.456;2023-02-20T00:57:15;23.05;;;8.35;;
67554;SDS011;54385;53.516;49.456;2023-02-20T00:59:42;27.98;;;12.98;;
67554;SDS011;54385;53.516;49.456;2023-02-20T01:02:08;29.52;;;9.60;;
67554;SDS011;54385;53.516;49.456;2023-02-20T01:04:35;23.67;;;10.13;;
67554;SDS011;54385;53.516;49.456;2023-02-20T01:07:01;23.42;;;9.93;;
67554;SDS011;54385;53.516;49.456;2023-02-20T01:09:28;34.28;;;11.57;;
67554;SDS011;54385;53.516;49.456;2023-02-20T01:11:55;23.80;;;10.35;;
67554;SDS011;54385;53.516;49.456;2023-02-20T01:14:21;26.10;;;11.85;;
67554;SDS011;54385;53.516;49.456;2023-02-20T01:16:49;22.20;;;9.48;;
67554;SDS011;54385;53.516;49.456;2023-02-20T01:19:17;29.10;;;12.65;;
67554;SDS011;54385;53.516;49.456;2023-02-20T01:21:44;24.83;;;11.35;;
67554;SDS011;54385;53.516;49.456;2023-02-20T01:24:11;22.83;;;10.15;;
67554;SDS011;54385;53.516;49.456;2023-02-20T01:26:39;21.30;;;9.55;;
67554;SDS011;54385;53.516;49.456;2023-02-20T01:29:06;21.42;;;9.57;;
67554;SDS011;54385;53.516;49.456;2023-02-20T01:31:33;22.45;;;9.88;;
67554;SDS011;54385;53.516;49.456;2023-02-20T01:33:59;21.70;;;9.35;;
67554;SDS011;54385;53.516;49.456;2023-02-20T01:36:26;16.35;;;8.93;;
67554;SDS011;54385;53.516;49.456;2023-02-20T01:38:55;20.80;;;10.20;;
67554;SDS011;54385;53.516;49.456;2023-02-20T01:41:22;14.55;;;7.75;;
67554;SDS011;54385;53.516;49.456;2023-02-20T01:43:50;20.45;;;9.02;;
67554;SDS011;54385;53.516;49.456;2023-02-20T01:49:05;21.17;;;9.02;;
67554;SDS011;54385;53.516;49.456;2023-02-20T01:51:40;17.50;;;7.63;;
67554;SDS011;54385;53.516;49.456;2023-02-20T01:54:16;13.32;;;7.93;;
67554;SDS011;54385;53.516;49.456;2023-02-20T01:56:45;13.07;;;7.82;;
67554;SDS011;54385;53.516;49.456;2023-02-20T01:59:17;18.15;;;8.07;;
67554;SDS011;54385;53.516;49.456;2023-02-20T02:01:46;20.00;;;8.20;;
67554;SDS011;54385;53.516;49.456;2023-02-20T02:04:13;16.35;;;7.55;;
67554;SDS011;54385;53.516;49.456;2023-02-20T02:06:41;12.70;;;6.18;;
67554;SDS011;54385;53.516;49.456;2023-02-20T02:09:18;18.27;;;7.43;;
67554;SDS011;54385;53.516;49.456;2023-02-20T02:11:55;15.18;;;7.05;;
67554;SDS011;54385;53.516;49.456;2023-02-20T02:14:25;14.80;;;7.25;;
67554;SDS011;54385;53.516;49.456;2023-02-20T02:17:03;11.95;;;6.68;;
67554;SDS011;54385;53.516;49.456;2023-02-20T02:28:29;16.55;;;8.38;;
67554;SDS011;54385;53.516;49.456;2023-02-20T02:31:19;16.63;;;8.75;;
67554;SDS011;54385;53.516;49.456;2023-02-20T02:36:50;16.88;;;9.23;;
67554;SDS011;54385;53.516;49.456;2023-02-20T02:45:18;17.45;;;8.73;;
67554;SDS011;54385;53.516;49.456;2023-02-20T02:50:44;13.95;;;7.45;;
67554;SDS011;54385;53.516;49.456;2023-02-20T02:53:13;18.10;;;8.40;;
67554;SDS011;54385;53.516;49.456;2023-02-20T02:55:42;13.60;;;7.60;;
67554;SDS011;54385;53.516;49.456;2023-02-20T02:58:13;13.05;;;7.10;;
67554;SDS011;54385;53.516;49.456;2023-02-20T03:00:49;13.38;;;7.68;;
67554;SDS011;54385;53.516;49.456;2023-02-20T03:03:28;14.63;;;5.80;;
67554;SDS011;54385;53.516;49.456;2023-02-20T03:09:16;12.52;;;5.25;;
67554;SDS011;54385;53.516;49.456;2023-02-20T03:11:50;19.83;;;8.07;;
67554;SDS011;54385;53.516;49.456;2023-02-20T03:14:20;15.73;;;8.55;;
67554;SDS011;54385;53.516;49.456;2023-02-20T03:19:54;21.25;;;8.27;;
67554;SDS011;54385;53.516;49.456;2023-02-20T03:22:31;13.63;;;6.95;;
67554;SDS011;54385;53.516;49.456;2023-02-20T03:25:13;13.88;;;7.72;;
67554;SDS011;54385;53.516;49.456;2023-02-20T03:28:08;20.27;;;9.30;;
67554;SDS011;54385;53.516;49.456;2023-02-20T03:34:08;18.95;;;8.75;;
67554;SDS011;54385;53.516;49.456;2023-02-20T03:37:02;9.68;;;4.78;;
67554;SDS011;54385;53.516;49.456;2023-02-20T03:43:33;12.95;;;5.68;;
67554;SDS011;54385;53.516;49.456;2023-02-20T03:46:05;14.57;;;6.03;;
67554;SDS011;54385;53.516;49.456;2023-02-20T03:49:11;12.60;;;6.63;;
67554;SDS011;54385;53.516;49.456;2023-02-20T03:51:42;9.93;;;4.75;;
67554;SDS011;54385;53.516;49.456;2023-02-20T03:54:50;13.13;;;6.57;;
67554;SDS011;54385;53.516;49.456;2023-02-20T03:57:29;16.80;;;7.40;;
67554;SDS011;54385;53.516;49.456;2023-02-20T04:00:12;17.05;;;6.63;;
67554;SDS011;54385;53.516;49.456;2023-02-20T04:03:24;14.55;;;7.35;;
67554;SDS011;54385;53.516;49.456;2023-02-20T04:06:02;13.90;;;6.35;;
67554;SDS011;54385;53.516;49.456;2023-02-20T04:08:48;16.45;;;6.70;;
67554;SDS011;54385;53.516;49.456;2023-02-20T04:14:42;13.20;;;6.22;;
67554;SDS011;54385;53.516;49.456;2023-02-20T04:17:19;7.43;;;5.93;;
67554;SDS011;54385;53.516;49.456;2023-02-20T04:19:51;27.60;;;8.07;;
67554;SDS011;54385;53.516;49.456;2023-02-20T04:22:30;15.98;;;8.00;;
67554;SDS011;54385;53.516;49.456;2023-02-20T04:25:18;13.18;;;7.30;;
67554;SDS011;54385;53.516;49.456;2023-02-20T04:28:09;16.10;;;7.78;;
67554;SDS011;54385;53.516;49.456;2023-02-20T04:31:02;17.05;;;7.55;;
67554;SDS011;54385;53.516;49.456;2023-02-20T04:33:45;18.23;;;9.65;;
67554;SDS011;54385;53.516;49.456;2023-02-20T04:36:20;16.85;;;7.68;;
67554;SDS011;54385;53.516;49.456;2023-02-20T04:38:47;16.65;;;7.15;;
67554;SDS011;54385;53.516;49.456;2023-02-20T04:42:00;8.13;;;5.15;;
67554;SDS011;54385;53.516;49.456;2023-02-20T04:48:28;14.35;;;6.50;;
67554;SDS011;54385;53.516;49.456;2023-02-20T04:54:24;15.82;;;5.97;;
67554;SDS011;54385;53.516;49.456;2023-02-20T04:57:46;14.13;;;8.13;;
67554;SDS011;54385;53.516;49.456;2023-02-20T05:00:13;12.75;;;7.05;;
67554;SDS011;54385;53.516;49.456;2023-02-20T05:09:09;15.48;;;7.00;;
67554;SDS011;54385;53.516;49.456;2023-02-20T05:11:36;13.20;;;6.95;;
67554;SDS011;54385;53.516;49.456;2023-02-20T05:14:11;17.17;;;7.43;;
67554;SDS011;54385;53.516;49.456;2023-02-20T05:17:14;17.55;;;8.52;;
67554;SDS011;54385;53.516;49.456;2023-02-20T05:20:03;15.55;;;7.95;;
67554;SDS011;54385;53.516;49.456;2023-02-20T05:22:53;19.30;;;8.25;;
67554;SDS011;54385;53.516;49.456;2023-02-20T05:25:48;17.20;;;7.57;;
67554;SDS011;54385;53.516;49.456;2023-02-20T05:28:28;13.98;;;8.05;;
67554;SDS011;54385;53.516;49.456;2023-02-20T05:31:29;14.88;;;7.13;;
67554;SDS011;54385;53.516;49.456;2023-02-20T05:34:01;17.52;;;8.45;;
67554;SDS011;54385;53.516;49.456;2023-02-20T05:39:57;14.32;;;5.50;;
67554;SDS011;54385;53.516;49.456;2023-02-20T05:42:27;20.48;;;8.63;;
67554;SDS011;54385;53.516;49.456;2023-02-20T05:44:57;16.42;;;8.38;;
67554;SDS011;54385;53.516;49.456;2023-02-20T05:47:27;19.15;;;9.40;;
67554;SDS011;54385;53.516;49.456;2023-02-20T05:59:27;12.60;;;6.68;;
67554;SDS011;54385;53.516;49.456;2023-02-20T06:02:43;14.63;;;7.15;;
67554;SDS011;54385;53.516;49.456;2023-02-20T06:19:22;18.70;;;8.60;;
67554;SDS011;54385;53.516;49.456;2023-02-20T06:25:34;18.95;;;8.55;;
67554;SDS011;54385;53.516;49.456;2023-02-20T06:28:59;17.55;;;8.95;;
67554;SDS011;54385;53.516;49.456;2023-02-20T06:31:28;15.13;;;6.40;;
67554;SDS011;54385;53.516;49.456;2023-02-20T06:34:11;15.18;;;8.93;;
67554;SDS011;54385;53.516;49.456;2023-02-20T06:37:00;20.20;;;8.68;;
67554;SDS011;54385;53.516;49.456;2023-02-20T06:39:51;22.55;;;10.55;;
67554;SDS011;54385;53.516;49.456;2023-02-20T06:42:27;17.48;;;8.13;;
67554;SDS011;54385;53.516;49.456;2023-02-20T06:45:06;19.08;;;9.05;;
67554;SDS011;54385;53.516;49.456;2023-02-20T06:47:59;13.32;;;6.32;;
67554;SDS011;54385;53.516;49.456;2023-02-20T07:00:26;22.38;;;8.27;;
67554;SDS011;54385;53.516;49.456;2023-02-20T07:03:02;18.17;;;8.93;;
67554;SDS011;54385;53.516;49.456;2023-02-20T07:05:57;18.35;;;8.10;;
67554;SDS011;54385;53.516;49.456;2023-02-20T07:08:30;19.00;;;7.93;;
67554;SDS011;54385;53.516;49.456;2023-02-20T07:14:44;16.67;;;6.95;;
67554;SDS011;54385;53.516;49.456;2023-02-20T07:17:16;20.23;;;7.15;;
67554;SDS011;54385;53.516;49.456;2023-02-20T07:19:45;16.88;;;7.72;;
67554;SDS011;54385;53.516;49.456;2023-02-20T07:22:32;14.45;;;6.40;;
67554;SDS011;54385;53.516;49.456;2023-02-20T07:28:31;14.70;;;6.90;;
67554;SDS011;54385;53.516;49.456;2023-02-20T07:34:43;11.70;;;5.57;;
67554;SDS011;54385;53.516;49.456;2023-02-20T07:37:20;13.40;;;6.65;;
67554;SDS011;54385;53.516;49.456;2023-02-20T07:39:49;17.92;;;6.85;;
67554;SDS011;54385;53.516;49.456;2023-02-20T07:42:16;14.43;;;7.15;;
67554;SDS011;54385;53.516;49.456;2023-02-20T07:44:43;15.63;;;7.40;;
67554;SDS011;54385;53.516;49.456;2023-02-20T07:47:30;11.93;;;5.60;;
67554;SDS011;54385;53.516;49.456;2023-02-20T07:50:39;8.55;;;4.90;;
67554;SDS011;54385;53.516;49.456;2023-02-20T07:53:06;14.05;;;6.35;;
67554;SDS011;54385;53.516;49.456;2023-02-20T08:00:04;13.98;;;6.68;;
67554;SDS011;54385;53.516;49.456;2023-02-20T08:02:39;13.93;;;6.85;;
67554;SDS011;54385;53.516;49.456;2023-02-20T08:09:59;20.25;;;7.88;;
67554;SDS011;54385;53.516;49.456;2023-02-20T08:12:31;20.05;;;9.02;;
67554;SDS011;54385;53.516;49.456;2023-02-20T08:15:20;17.65;;;8.55;;
67554;SDS011;54385;53.516;49.456;2023-02-20T08:17:53;20.15;;;8.57;;
67554;SDS011;54385;53.516;49.456;2023-02-20T08:20:20;22.45;;;9.68;;
67554;SDS011;54385;53.516;49.456;2023-02-20T08:22:47;16.55;;;8.75;;
67554;SDS011;54385;53.516;49.456;2023-02-20T08:25:20;17.40;;;9.38;;
67554;SDS011;54385;53.516;49.456;2023-02-20T08:27:55;15.50;;;7.90;;
67554;SDS011;54385;53.516;49.456;2023-02-20T08:30:25;16.58;;;9.15;;
67554;SDS011;54385;53.516;49.456;2023-02-20T08:32:53;16.70;;;9.20;;
67554;SDS011;54385;53.516;49.456;2023-02-20T08:35:23;18.33;;;9.90;;
67554;SDS011;54385;53.516;49.456;2023-02-20T08:41:06;18.65;;;10.02;;
67554;SDS011;54385;53.516;49.456;2023-02-20T08:43:41;17.55;;;9.13;;
67554;SDS011;54385;53.516;49.456;2023-02-20T08:49:05;19.15;;;9.20;;
67554;SDS011;54385;53.516;49.456;2023-02-20T08:51:53;18.23;;;7.53;;
67554;SDS011;54385;53.516;49.456;2023-02-20T08:54:47;14.35;;;7.05;;
67554;SDS011;54385;53.516;49.456;2023-02-20T09:00:46;15.15;;;7.63;;
67554;SDS011;54385;53.516;49.456;2023-02-20T09:03:16;16.35;;;7.72;;
67554;SDS011;54385;53.516;49.456;2023-02-20T09:05:43;15.85;;;7.85;;
67554;SDS011;54385;53.516;49.456;2023-02-20T09:08:21;14.00;;;7.28;;
67554;SDS011;54385;53.516;49.456;2023-02-20T09:10:55;18.33;;;9.07;;
67554;SDS011;54385;53.516;49.456;2023-02-20T09:13:21;16.60;;;7.95;;
67554;SDS011;54385;53.516;49.456;2023-02-20T09:15:48;23.35;;;8.85;;
67554;SDS011;54385;53.516;49.456;2023-02-20T09:18:17;17.83;;;8.27;;
67554;SDS011;54385;53.516;49.456;2023-02-20T09:20:44;12.85;;;6.43;;
67554;SDS011;54385;53.516;49.456;2023-02-20T09:23:11;16.88;;;7.63;;
67554;SDS011;54385;53.516;49.456;2023-02-20T09:25:42;16.73;;;8.45;;
67554;SDS011;54385;53.516;49.456;2023-02-20T09:28:11;15.93;;;7.97;;
67554;SDS011;54385;53.516;49.456;2023-02-20T09:30:41;14.10;;;6.88;;
67554;SDS011;54385;53.516;49.456;2023-02-20T09:33:28;19.77;;;6.65;;
67554;SDS011;54385;53.516;49.456;2023-02-20T09:36:17;22.45;;;9.95;;
67554;SDS011;54385;53.516;49.456;2023-02-20T09:39:11;18.67;;;7.90;;
67554;SDS011;54385;53.516;49.456;2023-02-20T09:45:32;17.60;;;7.25;;
67554;SDS011;54385;53.516;49.456;2023-02-20T09:53:35;12.48;;;5.63;;
67554;SDS011;54385;53.516;49.456;2023-02-20T09:59:41;13.02;;;7.00;;
67554;SDS011;54385;53.516;49.456;2023-02-20T10:06:10;18.52;;;7.03;;
67554;SDS011;54385;53.516;49.456;2023-02-20T10:08:48;18.63;;;8.00;;
67554;SDS011;54385;53.516;49.456;2023-02-20T10:21:06;12.65;;;6.80;;
67554;SDS011;54385;53.516;49.456;2023-02-20T10:27:41;6.72;;;3.70;;
67554;SDS011;54385;53.516;49.456;2023-02-20T10:41:46;14.50;;;6.47;;
67554;SDS011;54385;53.516;49.456;2023-02-20T10:44:26;15.35;;;7.28;;
67554;SDS011;54385;53.516;49.456;2023-02-20T10:47:22;19.48;;;8.90;;
67554;SDS011;54385;53.516;49.456;2023-02-20T10:50:04;17.15;;;7.95;;
67554;SDS011;54385;53.516;49.456;2023-02-20T10:53:12;19.40;;;9.90;;
67554;SDS011;54385;53.516;49.456;2023-02-20T10:56:11;14.93;;;8.55;;
67554;SDS011;54385;53.516;49.456;2023-02-20T11:07:12;13.23;;;6.68;;
67554;SDS011;54385;53.516;49.456;2023-02-20T11:16:40;15.30;;;7.13;;
67554;SDS011;54385;53.516;49.456;2023-02-20T11:23:41;17.33;;;6.47;;
67554;SDS011;54385;53.516;49.456;2023-02-20T11:26:18;12.38;;;6.60;;
67554;SDS011;54385;53.516;49.456;2023-02-20T11:39:23;14.85;;;6.50;;
67554;SDS011;54385;53.516;49.456;2023-02-20T11:42:08;11.23;;;5.63;;
67554;SDS011;54385;53.516;49.456;2023-02-20T11:45:26;14.73;;;6.45;;
67554;SDS011;54385;53.516;49.456;2023-02-20T11:48:19;7.35;;;4.07;;
67554;SDS011;54385;53.516;49.456;2023-02-20T11:50:47;11.90;;;5.63;;
67554;SDS011;54385;53.516;49.456;2023-02-20T13:50:45;8.60;;;4.57;;
67554;SDS011;54385;53.516;49.456;2023-02-20T14:05:29;10.00;;;4.47;;
67554;SDS011;54385;53.516;49.456;2023-02-20T14:47:57;14.95;;;7.80;;
67554;SDS011;54385;53.516;49.456;2023-02-20T14:52:17;26.20;;;7.60;;
67554;SDS011;54385;53.516;49.456;2023-02-20T15:20:38;17.35;;;7.50;;
67554;SDS011;54385;53.516;49.456;2023-02-20T15:24:31;16.83;;;7.47;;
67554;SDS011;54385;53.516;49.456;2023-02-20T15:35:30;18.27;;;7.65;;
67554;SDS011;54385;53.516;49.456;2023-02-20T15:47:17;15.27;;;6.03;;
67554;SDS011;54385;53.516;49.456;2023-02-20T15:58:56;14.52;;;6.82;;
67554;SDS011;54385;53.516;49.456;2023-02-20T16:03:12;16.92;;;7.03;;
67554;SDS011;54385;53.516;49.456;2023-02-20T16:06:54;13.88;;;5.82;;
67554;SDS011;54385;53.516;49.456;2023-02-20T16:10:57;11.77;;;6.43;;
67554;SDS011;54385;53.516;49.456;2023-02-20T16:18:23;9.68;;;4.88;;
67554;SDS011;54385;53.516;49.456;2023-02-20T16:21:51;15.52;;;6.30;;
67554;SDS011;54385;53.516;49.456;2023-02-20T16:32:57;15.23;;;5.97;;
67554;SDS011;54385;53.516;49.456;2023-02-20T16:50:51;16.92;;;6.35;;
67554;SDS011;54385;53.516;49.456;2023-02-20T16:57:43;11.48;;;4.68;;
67554;SDS011;54385;53.516;49.456;2023-02-20T17:00:59;15.65;;;6.55;;
67554;SDS011;54385;53.516;49.456;2023-02-20T17:12:36;11.80;;;4.93;;
67554;SDS011;54385;53.516;49.456;2023-02-20T17:19:42;12.27;;;5.20;;
67554;SDS011;54385;53.516;49.456;2023-02-20T17:22:56;11.48;;;5.88;;
67554;SDS011;54385;53.516;49.456;2023-02-20T17:29:30;11.30;;;6.45;;
67554;SDS011;54385;53.516;49.456;2023-02-20T17:33:20;14.25;;;6.03;;
67554;SDS011;54385;53.516;49.456;2023-02-20T17:36:16;12.60;;;6.25;;
67554;SDS011;54385;53.516;49.456;2023-02-20T17:52:21;12.38;;;5.50;;
67554;SDS011;54385;53.516;49.456;2023-02-20T17:55:42;12.18;;;6.05;;
67554;SDS011;54385;53.516;49.456;2023-02-20T18:04:01;12.73;;;5.80;;
67554;SDS011;54385;53.516;49.456;2023-02-20T18:06:42;16.08;;;7.35;;
67554;SDS011;54385;53.516;49.456;2023-02-20T18:23:54;15.40;;;6.90;;
67554;SDS011;54385;53.516;49.456;2023-02-20T18:26:55;14.30;;;6.70;;
67554;SDS011;54385;53.516;49.456;2023-02-20T18:30:09;15.15;;;7.55;;
67554;SDS011;54385;53.516;49.456;2023-02-20T18:37:03;15.02;;;6.82;;
67554;SDS011;54385;53.516;49.456;2023-02-20T18:44:10;12.68;;;6.35;;
67554;SDS011;54385;53.516;49.456;2023-02-20T18:47:11;15.27;;;6.10;;
67554;SDS011;54385;53.516;49.456;2023-02-20T18:50:06;16.55;;;6.20;;
67554;SDS011;54385;53.516;49.456;2023-02-20T18:52:36;15.30;;;6.70;;
67554;SDS011;54385;53.516;49.456;2023-02-20T18:55:11;12.40;;;5.63;;
67554;SDS011;54385;53.516;49.456;2023-02-20T18:58:28;10.68;;;5.10;;
67554;SDS011;54385;53.516;49.456;2023-02-20T19:01:15;13.50;;;5.93;;
67554;SDS011;54385;53.516;49.456;2023-02-20T19:03:53;12.50;;;4.90;;
67554;SDS011;54385;53.516;49.456;2023-02-20T19:06:42;12.70;;;5.78;;
67554;SDS011;54385;53.516;49.456;2023-02-20T19:09:23;13.38;;;4.82;;
67554;SDS011;54385;53.516;49.456;2023-02-20T19:12:52;13.32;;;6.05;;
67554;SDS011;54385;53.516;49.456;2023-02-20T19:15:54;10.57;;;4.32;;
67554;SDS011;54385;53.516;49.456;2023-02-20T19:18:59;11.68;;;3.90;;
67554;SDS011;54385;53.516;49.456;2023-02-20T19:22:23;11.75;;;4.45;;
67554;SDS011;54385;53.516;49.456;2023-02-20T19:25:07;8.85;;;3.72;;
67554;SDS011;54385;53.516;49.456;2023-02-20T19:27:50;6.80;;;3.72;;
67554;SDS011;54385;53.516;49.456;2023-02-20T19:34:41;12.98;;;6.00;;
67554;SDS011;54385;53.516;49.456;2023-02-20T19:37:59;10.05;;;5.22;;
67554;SDS011;54385;53.516;49.456;2023-02-20T19:44:12;7.65;;;4.45;;
67554;SDS011;54385;53.516;49.456;2023-02-20T19:47:12;11.45;;;4.88;;
67554;SDS011;54385;53.516;49.456;2023-02-20T19:50:15;10.05;;;4.95;;
67554;SDS011;54385;53.516;49.456;2023-02-20T19:53:41;12.60;;;5.88;;
67554;SDS011;54385;53.516;49.456;2023-02-20T19:59:40;9.63;;;5.43;;
67554;SDS011;54385;53.516;49.456;2023-02-20T20:02:12;14.75;;;6.00;;
67554;SDS011;54385;53.516;49.456;2023-02-20T20:04:48;13.30;;;5.38;;
67554;SDS011;54385;53.516;49.456;2023-02-20T20:07:20;10.90;;;5.70;;
67554;SDS011;54385;53.516;49.456;2023-02-20T20:10:00;12.48;;;4.95;;
67554;SDS011;54385;53.516;49.456;2023-02-20T20:12:32;13.10;;;5.70;;
67554;SDS011;54385;53.516;49.456;2023-02-20T20:15:24;11.80;;;6.55;;
67554;SDS011;54385;53.516;49.456;2023-02-20T20:18:16;11.88;;;5.82;;
67554;SDS011;54385;53.516;49.456;2023-02-20T20:21:14;7.32;;;4.07;;
67554;SDS011;54385;53.516;49.456;2023-02-20T20:24:13;11.20;;;5.35;;
67554;SDS011;54385;53.516;49.456;2023-02-20T20:26:57;11.90;;;4.82;;
67554;SDS011;54385;53.516;49.456;2023-02-20T20:30:15;12.30;;;5.18;;
67554;SDS011;54385;53.516;49.456;2023-02-20T20:32:49;12.82;;;6.00;;
67554;SDS011;54385;53.516;49.456;2023-02-20T20:40:47;11.90;;;5.75;;
67554;SDS011;54385;53.516;49.456;2023-02-20T20:43:24;11.18;;;5.40;;
67554;SDS011;54385;53.516;49.456;2023-02-20T20:46:24;14.25;;;6.82;;
67554;SDS011;54385;53.516;49.456;2023-02-20T20:49:13;11.65;;;4.97;;
67554;SDS011;54385;53.516;49.456;2023-02-20T20:51:54;12.95;;;5.38;;
67554;SDS011;54385;53.516;49.456;2023-02-20T20:54:41;13.30;;;6.53;;
67554;SDS011;54385;53.516;49.456;2023-02-20T20:57:24;12.15;;;5.30;;
67554;SDS011;54385;53.516;49.456;2023-02-20T21:00:36;11.85;;;6.55;;
67554;SDS011;54385;53.516;49.456;2023-02-20T21:03:09;10.40;;;5.78;;
67554;SDS011;54385;53.516;49.456;2023-02-20T21:05:35;14.65;;;6.60;;
67554;SDS011;54385;53.516;49.456;2023-02-20T21:08:05;15.10;;;6.05;;
67554;SDS011;54385;53.516;49.456;2023-02-20T21:13:02;11.93;;;4.97;;
67554;SDS011;54385;53.516;49.456;2023-02-20T21:15:58;12.13;;;5.50;;
67554;SDS011;54385;53.516;49.456;2023-02-20T21:18:27;15.65;;;6.18;;
67554;SDS011;54385;53.516;49.456;2023-02-20T21:20:59;16.33;;;6.93;;
67554;SDS011;54385;53.516;49.456;2023-02-20T21:23:26;12.63;;;5.93;;
67554;SDS011;54385;53.516;49.456;2023-02-20T21:26:18;16.23;;;6.55;;
67554;SDS011;54385;53.516;49.456;2023-02-20T21:28:47;13.80;;;5.97;;
67554;SDS011;54385;53.516;49.456;2023-02-20T21:31:19;16.80;;;7.38;;
67554;SDS011;54385;53.516;49.456;2023-02-20T21:34:03;17.02;;;6.63;;
67554;SDS011;54385;53.516;49.456;2023-02-20T21:36:33;16.98;;;6.55;;
67554;SDS011;54385;53.516;49.456;2023-02-20T21:39:02;17.67;;;6.93;;
67554;SDS011;54385;53.516;49.456;2023-02-20T21:41:52;15.68;;;6.85;;
67554;SDS011;54385;53.516;49.456;2023-02-20T21:44:56;14.60;;;7.28;;
67554;SDS011;54385;53.516;49.456;2023-02-20T21:47:23;16.50;;;6.90;;
67554;SDS011;54385;53.516;49.456;2023-02-20T21:49:51;15.93;;;6.57;;
67554;SDS011;54385;53.516;49.456;2023-02-20T21:52:40;17.10;;;7.03;;
67554;SDS011;54385;53.516;49.456;2023-02-20T21:55:08;15.82;;;7.32;;
67554;SDS011;54385;53.516;49.456;2023-02-20T21:57:49;12.77;;;6.53;;
67554;SDS011;54385;53.516;49.456;2023-02-20T22:00:21;20.48;;;7.93;;
67554;SDS011;54385;53.516;49.456;2023-02-20T22:02:48;19.05;;;8.00;;
67554;SDS011;54385;53.516;49.456;2023-02-20T22:05:17;16.02;;;7.78;;
67554;SDS011;54385;53.516;49.456;2023-02-20T22:07:50;15.30;;;7.97;;
67554;SDS011;54385;53.516;49.456;2023-02-20T22:10:38;18.30;;;8.15;;
67554;SDS011;54385;53.516;49.456;2023-02-20T22:13:23;13.98;;;7.82;;
67554;SDS011;54385;53.516;49.456;2023-02-20T22:16:18;16.35;;;7.72;;
67554;SDS011;54385;53.516;49.456;2023-02-20T22:19:31;13.48;;;6.05;;
67554;SDS011;54385;53.516;49.456;2023-02-20T22:22:16;15.88;;;6.82;;
67554;SDS011;54385;53.516;49.456;2023-02-20T22:25:06;15.73;;;6.68;;
67554;SDS011;54385;53.516;49.456;2023-02-20T22:28:18;14.52;;;7.15;;
67554;SDS011;54385;53.516;49.456;2023-02-20T22:31:06;15.50;;;7.20;;
67554;SDS011;54385;53.516;49.456;2023-02-20T22:33:51;14.00;;;6.13;;
67554;SDS011;54385;53.516;49.456;2023-02-20T22:36:36;13.70;;;6.65;;
67554;SDS011;54385;53.516;49.456;2023-02-20T22:39:24;16.58;;;7.45;;
67554;SDS011;54385;53.516;49.456;2023-02-20T22:42:32;14.27;;;6.63;;
67554;SDS011;54385;53.516;49.456;2023-02-20T22:45:27;13.05;;;5.07;;
67554;SDS011;54385;53.516;49.456;2023-02-20T22:48:18;14.07;;;6.72;;
67554;SDS011;54385;53.516;49.456;2023-02-20T22:51:13;10.02;;;4.85;;
67554;SDS011;54385;53.516;49.456;2023-02-20T22:53:58;14.18;;;6.57;;
67554;SDS011;54385;53.516;49.456;2023-02-20T22:56:44;12.73;;;6.53;;
67554;SDS011;54385;53.516;49.456;2023-02-20T22:59:29;10.30;;;5.13;;
67554;SDS011;54385;53.516;49.456;2023-02-20T23:02:14;6.32;;;2.80;;
67554;SDS011;54385;53.516;49.456;2023-02-20T23:05:03;12.18;;;5.88;;
67554;SDS011;54385;53.516;49.456;2023-02-20T23:07:49;8.35;;;4.63;;
67554;SDS011;54385;53.516;49.456;2023-02-20T23:10:41;9.02;;;4.40;;
67554;SDS011;54385;53.516;49.456;2023-02-20T23:13:28;10.77;;;6.05;;
67554;SDS011;54385;53.516;49.456;2023-02-20T23:16:16;17.15;;;6.78;;
67554;SDS011;54385;53.516;49.456;2023-02-20T23:19:02;10.95;;;5.50;;
67554;SDS011;54385;53.516;49.456;2023-02-20T23:21:48;15.35;;;7.05;;
67554;SDS011;54385;53.516;49.456;2023-02-20T23:27:25;15.18;;;6.25;;
67554;SDS011;54385;53.516;49.456;2023-02-20T23:30:17;17.30;;;7.80;;
67554;SDS011;54385;53.516;49.456;2023-02-20T23:33:13;13.68;;;6.15;;
67554;SDS011;54385;53.516;49.456;2023-02-20T23:35:58;13.63;;;6.15;;
67554;SDS011;54385;53.516;49.456;2023-02-20T23:38:46;13.75;;;6.72;;
67554;SDS011;54385;53.516;49.456;2023-02-20T23:41:58;11.88;;;6.22;;
67554;SDS011;54385;53.516;49.456;2023-02-20T23:44:43;14.57;;;6.72;;
67554;SDS011;54385;53.516;49.456;2023-02-20T23:47:31;13.90;;;6.30;;
67554;SDS011;54385;53.516;49.456;2023-02-20T23:50:16;15.77;;;6.97;;
67554;SDS011;54385;53.516;49.456;2023-02-20T23:53:14;12.45;;;6.07;;
67554;SDS011;54385;53.516;49.456;2023-02-20T23:56:03;15.68;;;7.38;;
67554;SDS011;54385;53.516;49.456;2023-02-20T23:58:49;17.15;;;7.65;;
